Time;durP1;ratioP1;P1;durP2;ratioP2;P2;SDS_P1;SDS_P2;PMS_P1;PMS_P2;Temp;Humidity;BMP_temperature;BMP_pressure;BME280_temperature;BME280_humidity;BME280_pressure;Samples;Min_cycle;Max_cycle;Signal;HPM_P1;HPM_P2
2021/08/03 00:02:01;;;;;;;1.30;1.20;;;24.50;45.20;;;;;;5051080;28;20233;-66
2021/08/03 00:04:28;;;;;;;1.20;1.10;;;24.50;45.20;;;;;;5049881;28;20221;-66
2021/08/03 00:06:54;;;;;;;1.48;1.27;;;24.50;45.20;;;;;;5049511;28;20678;-66
2021/08/03 00:09:20;;;;;;;1.50;1.20;;;24.50;45.20;;;;;;5051774;28;20569;-65
2021/08/03 00:11:47;;;;;;;1.42;1.33;;;24.50;45.20;;;;;;5057212;28;20244;-66
2021/08/03 00:14:13;;;;;;;1.50;1.40;;;24.50;45.20;;;;;;5056527;28;20300;-66
2021/08/03 00:16:40;;;;;;;1.83;1.40;;;24.50;45.20;;;;;;5056920;28;20296;-66
2021/08/03 00:19:06;;;;;;;1.42;1.25;;;24.50;45.20;;;;;;5056555;28;20198;-66
2021/08/03 00:21:33;;;;;;;1.40;1.30;;;24.50;45.20;;;;;;5057711;28;20744;-66
2021/08/03 00:23:59;;;;;;;2.33;1.67;;;24.50;45.20;;;;;;5056368;28;21287;-66
2021/08/03 00:26:26;;;;;;;1.33;1.23;;;24.50;45.20;;;;;;5057455;28;20285;-66
2021/08/03 00:28:52;;;;;;;1.30;1.20;;;24.50;45.20;;;;;;5055632;28;20197;-66
2021/08/03 00:31:19;;;;;;;1.63;1.50;;;24.50;45.20;;;;;;5057292;28;20204;-66
2021/08/03 00:33:45;;;;;;;1.42;1.33;;;24.50;45.10;;;;;;5055316;28;20288;-66
2021/08/03 00:36:11;;;;;;;1.40;1.30;;;24.50;45.10;;;;;;5056002;28;20722;-66
2021/08/03 00:38:38;;;;;;;1.33;1.23;;;24.50;45.10;;;;;;5056270;28;20288;-66
2021/08/03 00:41:04;;;;;;;1.70;1.60;;;24.50;45.20;;;;;;5056714;28;20312;-66
2021/08/03 00:43:31;;;;;;;1.27;1.17;;;24.50;45.20;;;;;;5057334;28;20288;-66
2021/08/03 00:45:57;;;;;;;1.30;1.20;;;24.50;45.10;;;;;;5056299;28;20305;-66
2021/08/03 00:48:24;;;;;;;1.17;1.10;;;24.50;45.10;;;;;;5056046;28;20732;-66
2021/08/03 00:50:51;;;;;;;1.23;1.13;;;24.50;45.10;;;;;;5045975;28;20647;-66
2021/08/03 00:53:17;;;;;;;1.23;1.10;;;24.50;45.20;;;;;;5056033;28;20682;-66
2021/08/03 00:55:43;;;;;;;1.25;1.15;;;24.50;45.10;;;;;;5055734;28;20217;-67
2021/08/03 00:58:10;;;;;;;1.25;1.15;;;24.50;45.20;;;;;;5056285;28;20251;-67
2021/08/03 01:00:36;;;;;;;1.45;1.35;;;24.50;45.10;;;;;;5056747;28;20280;-66
2021/08/03 01:03:03;;;;;;;1.00;1.00;;;24.50;45.20;;;;;;5056182;28;20777;-66
2021/08/03 01:05:29;;;;;;;1.50;1.40;;;24.50;45.20;;;;;;5055613;28;20312;-66
2021/08/03 01:07:56;;;;;;;1.60;1.23;;;24.50;45.20;;;;;;5056365;28;20285;-66
2021/08/03 01:10:22;;;;;;;1.42;1.30;;;24.40;45.10;;;;;;5056912;28;20198;-66
2021/08/03 01:12:49;;;;;;;1.98;1.33;;;24.40;45.10;;;;;;5057448;28;20292;-66
2021/08/03 01:15:15;;;;;;;1.25;1.15;;;24.50;45.20;;;;;;5055901;28;20245;-66
2021/08/03 01:17:42;;;;;;;1.50;1.40;;;24.50;45.20;;;;;;5056188;28;20190;-66
2021/08/03 01:20:08;;;;;;;1.20;1.10;;;24.50;45.20;;;;;;5056137;28;20217;-66
2021/08/03 01:22:35;;;;;;;1.77;1.52;;;24.40;45.10;;;;;;5053199;28;20321;-66
2021/08/03 01:25:01;;;;;;;1.95;1.33;;;24.50;45.20;;;;;;5052653;28;20230;-66
2021/08/03 01:27:28;;;;;;;1.15;1.15;;;24.50;45.20;;;;;;5052468;28;20210;-66
2021/08/03 01:29:54;;;;;;;1.00;1.00;;;24.50;45.30;;;;;;5052230;28;20194;-66
2021/08/03 01:32:21;;;;;;;1.30;1.20;;;24.50;45.30;;;;;;5053485;28;20209;-66
2021/08/03 01:34:48;;;;;;;1.50;1.40;;;24.50;45.30;;;;;;5051490;28;20253;-66
2021/08/03 01:37:14;;;;;;;1.40;1.30;;;24.40;45.20;;;;;;5052098;28;20202;-66
2021/08/03 01:39:40;;;;;;;1.40;1.30;;;24.40;45.20;;;;;;5052194;28;20201;-66
2021/08/03 01:42:07;;;;;;;1.30;1.20;;;24.50;45.30;;;;;;5052154;28;20226;-67
2021/08/03 01:44:33;;;;;;;1.50;1.40;;;24.50;45.40;;;;;;5050948;28;20224;-66
2021/08/03 01:47:00;;;;;;;1.33;1.23;;;24.40;45.30;;;;;;5051980;28;20662;-66
2021/08/03 01:49:26;;;;;;;1.52;1.30;;;24.40;45.30;;;;;;5051789;28;20220;-66
2021/08/03 01:51:53;;;;;;;1.20;1.10;;;24.40;45.30;;;;;;5052468;28;20285;-66
2021/08/03 01:54:19;;;;;;;1.50;1.40;;;24.40;45.30;;;;;;5051338;28;20249;-67
2021/08/03 01:56:46;;;;;;;1.20;1.10;;;24.40;45.30;;;;;;5051938;28;20280;-66
2021/08/03 01:59:12;;;;;;;2.22;1.30;;;24.40;45.30;;;;;;5052225;28;20730;-66
2021/08/03 02:01:38;;;;;;;1.30;1.20;;;24.40;45.40;;;;;;5051834;28;20626;-66
2021/08/03 02:04:05;;;;;;;1.35;1.25;;;24.40;45.40;;;;;;5052140;28;20248;-66
2021/08/03 02:06:31;;;;;;;1.13;1.10;;;24.40;45.40;;;;;;5050404;28;20202;-66
2021/08/03 02:08:58;;;;;;;1.52;1.42;;;24.40;45.40;;;;;;5040159;28;20399;-66
2021/08/03 02:11:24;;;;;;;1.13;1.02;;;24.40;45.40;;;;;;5052903;28;20320;-66
2021/08/03 02:13:51;;;;;;;1.27;1.20;;;24.50;45.50;;;;;;5052570;28;20249;-66
2021/08/03 02:16:17;;;;;;;2.45;1.08;;;24.50;45.50;;;;;;5051559;28;20205;-66
2021/08/03 02:18:46;;;;;;;1.45;1.35;;;24.40;45.40;;;;;;5052859;28;20221;-66
2021/08/03 02:21:12;;;;;;;1.33;1.23;;;24.50;45.50;;;;;;5049339;28;20692;-66
2021/08/03 02:23:41;;;;;;;1.58;1.20;;;24.40;45.40;;;;;;5052451;28;20285;-66
2021/08/03 02:26:08;;;;;;;1.35;1.25;;;24.40;45.40;;;;;;5051668;28;20202;-66
2021/08/03 02:28:34;;;;;;;1.70;1.30;;;24.40;45.40;;;;;;5050472;28;20204;-66
2021/08/03 02:31:01;;;;;;;1.38;1.20;;;24.40;45.40;;;;;;5052011;28;20204;-66
2021/08/03 02:33:27;;;;;;;3.83;2.53;;;24.40;45.40;;;;;;5050111;28;20201;-67
2021/08/03 02:35:55;;;;;;;1.25;1.15;;;24.50;45.50;;;;;;5050953;28;20306;-67
2021/08/03 02:38:22;;;;;;;1.10;1.00;;;24.50;45.50;;;;;;5050651;28;20198;-66
2021/08/03 02:40:48;;;;;;;1.38;1.27;;;24.40;45.50;;;;;;5052051;28;20208;-66
2021/08/03 02:43:15;;;;;;;1.20;1.10;;;24.50;45.50;;;;;;5050793;28;20237;-66
2021/08/03 02:45:41;;;;;;;1.17;1.10;;;24.40;45.40;;;;;;5051591;28;20706;-66
2021/08/03 02:48:12;;;;;;;1.50;1.40;;;24.40;45.40;;;;;;5051267;28;20198;-66
2021/08/03 02:50:38;;;;;;;3.40;1.15;;;24.40;45.40;;;;;;5048666;28;20205;-67
2021/08/03 02:53:05;;;;;;;1.33;1.10;;;24.40;45.50;;;;;;5045842;28;20300;-66
2021/08/03 02:55:31;;;;;;;1.25;1.15;;;24.40;45.50;;;;;;5051666;28;20313;-66
2021/08/03 02:57:58;;;;;;;1.30;1.20;;;24.40;45.40;;;;;;5050905;28;20198;-66
2021/08/03 03:00:24;;;;;;;1.30;1.00;;;24.40;45.40;;;;;;5051704;28;20198;-65
2021/08/03 03:02:51;;;;;;;1.30;1.20;;;24.50;45.50;;;;;;5050869;28;20764;-66
2021/08/03 03:05:17;;;;;;;1.27;1.17;;;24.50;45.50;;;;;;5052425;28;20570;-66
2021/08/03 03:07:44;;;;;;;1.42;1.20;;;24.40;45.50;;;;;;5050919;28;20293;-66
2021/08/03 03:10:10;;;;;;;1.48;1.20;;;24.40;45.70;;;;;;5051832;28;20201;-66
2021/08/03 03:12:36;;;;;;;1.25;1.15;;;24.40;45.70;;;;;;5050700;28;20289;-66
2021/08/03 03:15:03;;;;;;;1.50;1.40;;;24.50;45.80;;;;;;5051303;28;20224;-66
2021/08/03 03:17:29;;;;;;;0.98;0.98;;;24.50;45.90;;;;;;5050619;28;20740;-66
2021/08/03 03:19:56;;;;;;;4.97;1.58;;;24.40;45.80;;;;;;5051651;28;20285;-66
2021/08/03 03:22:22;;;;;;;2.88;1.38;;;24.40;45.80;;;;;;5050421;28;20248;-66
2021/08/03 03:24:49;;;;;;;2.53;1.10;;;24.40;45.80;;;;;;5051411;28;20305;-66
2021/08/03 03:27:15;;;;;;;1.20;1.05;;;24.40;45.80;;;;;;5049394;28;20208;-66
2021/08/03 03:29:42;;;;;;;1.40;1.30;;;24.40;45.80;;;;;;5051354;28;20288;-66
2021/08/03 03:32:08;;;;;;;2.63;1.20;;;24.50;45.90;;;;;;5049341;28;20297;-66
2021/08/03 03:34:34;;;;;;;1.67;1.20;;;24.40;45.80;;;;;;5050697;28;20769;-66
2021/08/03 03:37:01;;;;;;;2.00;1.17;;;24.40;45.80;;;;;;5050497;28;20650;-66
2021/08/03 03:39:27;;;;;;;1.88;1.05;;;24.40;45.80;;;;;;5051182;28;20225;-66
2021/08/03 03:41:54;;;;;;;2.22;1.10;;;24.40;45.90;;;;;;5050288;28;20312;-66
2021/08/03 03:44:20;;;;;;;1.50;1.27;;;24.40;45.80;;;;;;5049423;28;20372;-66
2021/08/03 03:46:47;;;;;;;1.60;1.20;;;24.40;45.90;;;;;;5050911;28;20200;-66
2021/08/03 03:49:14;;;;;;;1.58;1.10;;;24.40;45.90;;;;;;5050108;28;20619;-66
2021/08/03 03:51:40;;;;;;;2.38;1.08;;;24.40;45.90;;;;;;5049726;28;20688;-66
2021/08/03 03:54:08;;;;;;;1.27;1.17;;;24.40;45.90;;;;;;5048914;28;20293;-66
2021/08/03 03:56:35;;;;;;;1.33;1.23;;;24.40;45.90;;;;;;5050958;28;20205;-66
2021/08/03 03:59:01;;;;;;;1.30;1.20;;;24.40;45.90;;;;;;5050604;28;20229;-66
2021/08/03 04:01:27;;;;;;;1.52;1.20;;;24.40;45.90;;;;;;5051184;28;20208;-66
2021/08/03 04:03:54;;;;;;;1.40;1.13;;;24.40;45.90;;;;;;5048251;28;20271;-66
2021/08/03 04:06:20;;;;;;;1.27;0.95;;;24.40;46.00;;;;;;5050527;28;20313;-66
2021/08/03 04:08:47;;;;;;;1.98;1.38;;;24.40;45.90;;;;;;5050071;28;20288;-66
2021/08/03 04:11:15;;;;;;;1.40;1.30;;;24.40;45.90;;;;;;5051024;28;20297;-66
2021/08/03 04:13:42;;;;;;;1.95;1.10;;;24.40;46.00;;;;;;5049448;28;20218;-66
2021/08/03 04:16:08;;;;;;;1.40;1.30;;;24.40;46.00;;;;;;5050267;28;20205;-67
2021/08/03 04:18:35;;;;;;;2.05;1.10;;;24.40;46.00;;;;;;5049917;28;20201;-67
2021/08/03 04:21:01;;;;;;;2.08;1.10;;;24.40;46.00;;;;;;5050264;28;20734;-66
2021/08/03 04:23:28;;;;;;;1.05;1.05;;;24.40;46.00;;;;;;5049319;28;20787;-66
2021/08/03 04:25:54;;;;;;;1.48;1.20;;;24.40;46.00;;;;;;5049038;28;20238;-66
2021/08/03 04:28:20;;;;;;;1.52;1.10;;;24.40;46.00;;;;;;5049361;28;20251;-66
2021/08/03 04:30:47;;;;;;;1.10;1.02;;;24.40;46.00;;;;;;5049482;28;20194;-66
2021/08/03 04:33:13;;;;;;;1.25;1.10;;;24.40;46.00;;;;;;5049462;28;20206;-66
2021/08/03 04:35:40;;;;;;;1.20;1.10;;;24.40;46.00;;;;;;5044496;28;20616;-66
2021/08/03 04:38:06;;;;;;;1.55;1.30;;;24.40;46.10;;;;;;5050414;28;20232;-67
2021/08/03 04:40:33;;;;;;;1.30;0.90;;;24.40;46.10;;;;;;5049553;28;20289;-66
2021/08/03 04:42:59;;;;;;;1.30;1.05;;;24.40;46.10;;;;;;5049415;28;20241;-66
2021/08/03 04:45:26;;;;;;;1.30;1.20;;;24.40;46.10;;;;;;5049806;28;20292;-66
2021/08/03 04:47:52;;;;;;;1.35;1.10;;;24.40;46.10;;;;;;5049580;28;20289;-66
2021/08/03 04:50:18;;;;;;;1.65;1.08;;;24.40;46.10;;;;;;5049800;28;20734;-65
2021/08/03 04:55:13;;;;;;;1.17;1.10;;;24.40;46.10;;;;;;4999886;28;20245;-50
2021/08/03 04:57:39;;;;;;;1.30;1.20;;;24.40;46.10;;;;;;5011366;28;20205;-57
2021/08/03 05:00:06;;;;;;;1.15;1.10;;;24.40;46.10;;;;;;5013908;28;20243;-57
2021/08/03 05:02:32;;;;;;;1.38;1.27;;;24.40;46.10;;;;;;5012786;28;20282;-59
2021/08/03 05:04:59;;;;;;;2.15;1.20;;;24.40;46.10;;;;;;5013066;28;20629;-49
2021/08/03 05:07:25;;;;;;;2.38;1.33;;;24.40;46.10;;;;;;5012220;28;20306;-55
2021/08/03 05:09:52;;;;;;;1.48;1.38;;;24.40;46.10;;;;;;5013698;28;20225;-54
2021/08/03 05:12:18;;;;;;;1.10;1.00;;;24.40;46.10;;;;;;5012980;28;20207;-57
2021/08/03 05:14:44;;;;;;;1.50;1.40;;;24.40;46.10;;;;;;5012812;28;20223;-54
2021/08/03 05:17:11;;;;;;;1.13;1.02;;;24.40;46.10;;;;;;5000676;28;20195;-51
2021/08/03 05:19:37;;;;;;;1.88;1.00;;;24.40;46.10;;;;;;5012868;28;20218;-56
2021/08/03 05:22:04;;;;;;;1.27;1.13;;;24.40;46.10;;;;;;5013478;28;20733;-55
2021/08/03 05:24:31;;;;;;;0.88;0.88;;;24.40;46.10;;;;;;5012948;28;20317;-50
2021/08/03 05:27:00;;;;;;;1.10;1.00;;;24.40;46.10;;;;;;5012440;28;20203;-53
2021/08/03 05:29:27;;;;;;;2.03;1.27;;;24.40;46.00;;;;;;5011678;28;20203;-51
2021/08/03 05:31:53;;;;;;;1.00;1.00;;;24.40;46.10;;;;;;5013264;28;20213;-51
2021/08/03 05:34:19;;;;;;;1.30;1.20;;;24.40;46.10;;;;;;5012017;28;20225;-55
2021/08/03 05:36:46;;;;;;;1.40;1.30;;;24.40;46.10;;;;;;5012419;28;20604;-55
2021/08/03 05:39:12;;;;;;;1.60;1.50;;;24.40;46.10;;;;;;5011917;28;20621;-56
2021/08/03 05:41:39;;;;;;;1.20;1.10;;;24.50;46.20;;;;;;5013158;28;20290;-53
2021/08/03 05:44:05;;;;;;;1.17;1.08;;;24.40;46.10;;;;;;5010870;28;20238;-49
2021/08/03 05:46:32;;;;;;;1.27;1.17;;;24.40;46.10;;;;;;5011888;28;20711;-56
2021/08/03 05:48:58;;;;;;;1.63;1.38;;;24.50;46.20;;;;;;5011501;28;20719;-47
2021/08/03 05:51:25;;;;;;;1.10;0.93;;;24.50;46.20;;;;;;5012505;28;20245;-51
2021/08/03 05:53:51;;;;;;;1.20;1.10;;;24.50;46.30;;;;;;5010639;28;20231;-51
2021/08/03 05:56:18;;;;;;;1.15;1.05;;;24.50;46.30;;;;;;5009908;28;20437;-52
2021/08/03 05:58:44;;;;;;;1.55;1.17;;;24.50;46.30;;;;;;5010671;28;20207;-55
2021/08/03 06:01:10;;;;;;;1.15;1.05;;;24.40;46.20;;;;;;5011938;28;20247;-53
2021/08/03 06:03:37;;;;;;;1.70;1.15;;;24.50;46.30;;;;;;5011488;28;20230;-55
2021/08/03 06:06:04;;;;;;;1.63;1.17;;;24.50;46.30;;;;;;5011859;28;20238;-58
2021/08/03 06:08:30;;;;;;;1.48;1.15;;;24.40;46.20;;;;;;5007344;28;20235;-49
2021/08/03 06:10:57;;;;;;;1.30;1.20;;;24.50;46.10;;;;;;5012552;28;20286;-49
2021/08/03 06:13:23;;;;;;;2.22;1.60;;;24.50;46.50;;;;;;5011570;28;20222;-52
2021/08/03 06:15:50;;;;;;;2.08;1.00;;;24.50;46.80;;;;;;5010173;28;20209;-54
2021/08/03 06:18:16;;;;;;;1.38;1.27;;;24.60;46.40;;;;;;5010545;28;20214;-55
2021/08/03 06:20:42;;;;;;;3.38;1.30;;;24.50;46.40;;;;;;5010795;28;20345;-48
2021/08/03 06:23:09;;;;;;;1.30;1.13;;;24.60;46.80;;;;;;5011952;28;20239;-54
2021/08/03 06:25:35;;;;;;;3.75;1.50;;;24.60;46.70;;;;;;5010680;28;20226;-50
2021/08/03 06:28:02;;;;;;;5.85;1.80;;;24.60;46.80;;;;;;5010059;28;20294;-48
2021/08/03 06:30:28;;;;;;;3.67;1.85;;;24.60;47.30;;;;;;5009132;28;20298;-57
2021/08/03 06:32:55;;;;;;;8.27;2.15;;;24.50;47.90;;;;;;5010984;28;20309;-53
2021/08/03 06:35:22;;;;;;;5.85;2.08;;;24.60;48.20;;;;;;5002015;28;20285;-60
2021/08/03 06:37:48;;;;;;;8.77;2.53;;;24.60;48.50;;;;;;5010965;28;20310;-58
2021/08/03 06:40:14;;;;;;;10.13;2.75;;;24.60;49.20;;;;;;5011424;28;20210;-58
2021/08/03 06:42:41;;;;;;;7.03;2.47;;;24.60;49.50;;;;;;5010397;28;20313;-56
2021/08/03 06:45:07;;;;;;;7.95;3.22;;;24.60;49.50;;;;;;5010691;28;20207;-58
2021/08/03 06:47:34;;;;;;;8.38;2.88;;;24.60;50.00;;;;;;5010493;28;20203;-59
2021/08/03 06:50:00;;;;;;;6.78;2.38;;;24.60;50.40;;;;;;5010924;28;20307;-54
2021/08/03 06:52:27;;;;;;;9.60;3.17;;;24.60;49.90;;;;;;5011248;28;20250;-50
2021/08/03 06:54:53;;;;;;;5.63;2.80;;;24.60;50.70;;;;;;5008708;28;20207;-51
2021/08/03 06:57:20;;;;;;;8.07;2.80;;;23.90;45.90;;;;;;5007876;28;20205;-51
2021/08/03 06:59:47;;;;;;;4.88;2.38;;;22.80;45.00;;;;;;5010537;28;20261;-57
2021/08/03 07:02:13;;;;;;;2.95;2.45;;;22.20;45.00;;;;;;5010879;28;20210;-52
2021/08/03 07:04:40;;;;;;;5.45;2.58;;;22.40;46.10;;;;;;5010740;28;20659;-55
2021/08/03 07:07:06;;;;;;;2.80;2.35;;;22.80;44.90;;;;;;5009152;28;20285;-54
2021/08/03 07:09:32;;;;;;;3.13;2.15;;;22.50;45.00;;;;;;5005294;28;20299;-53
2021/08/03 07:11:59;;;;;;;2.30;2.10;;;22.80;45.20;;;;;;5010091;28;20203;-55
2021/08/03 07:14:25;;;;;;;3.63;2.40;;;23.10;45.30;;;;;;5011413;28;20222;-54
2021/08/03 07:16:52;;;;;;;2.95;2.25;;;23.40;44.70;;;;;;5009914;28;20299;-57
2021/08/03 07:19:18;;;;;;;2.42;2.20;;;23.50;44.30;;;;;;5010300;28;20286;-53
2021/08/03 07:21:45;;;;;;;2.67;2.40;;;23.50;44.20;;;;;;5008667;28;20656;-57
2021/08/03 07:24:11;;;;;;;3.88;2.35;;;23.20;42.20;;;;;;5007176;28;20626;-52
2021/08/03 07:26:38;;;;;;;2.80;2.13;;;23.40;44.60;;;;;;5008599;28;20203;-55
2021/08/03 07:29:04;;;;;;;3.50;2.58;;;23.60;44.50;;;;;;5008664;28;20250;-56
2021/08/03 07:31:31;;;;;;;2.40;2.20;;;23.80;44.20;;;;;;5010403;28;20262;-52
2021/08/03 07:33:57;;;;;;;3.55;2.08;;;24.00;44.00;;;;;;5009271;28;20234;-58
2021/08/03 07:36:23;;;;;;;3.17;2.30;;;24.00;44.40;;;;;;5007546;28;20199;-58
2021/08/03 07:38:54;;;;;;;2.67;2.20;;;24.10;44.50;;;;;;5006618;28;20205;-56
2021/08/03 07:41:20;;;;;;;4.03;2.05;;;24.10;44.70;;;;;;5005219;28;20244;-58
2021/08/03 07:43:46;;;;;;;2.20;1.90;;;24.20;45.40;;;;;;5009314;28;20234;-60
2021/08/03 07:46:13;;;;;;;3.45;2.00;;;24.20;43.90;;;;;;5008142;28;20578;-61
2021/08/03 07:48:39;;;;;;;2.20;1.67;;;24.20;44.50;;;;;;4998100;28;20290;-60
2021/08/03 07:51:06;;;;;;;2.05;1.80;;;24.20;44.70;;;;;;5007053;28;20209;-60
2021/08/03 07:53:32;;;;;;;2.22;1.70;;;24.20;44.90;;;;;;5001908;28;20237;-58
2021/08/03 07:55:59;;;;;;;2.70;1.63;;;24.20;45.20;;;;;;5013423;28;20293;-54
2021/08/03 07:58:25;;;;;;;2.67;1.85;;;24.20;43.60;;;;;;5016797;28;20203;-54
2021/08/03 08:00:52;;;;;;;3.83;2.10;;;24.30;44.50;;;;;;5010638;28;20209;-55
2021/08/03 08:03:18;;;;;;;2.15;1.65;;;24.30;45.00;;;;;;5009839;28;20658;-57
2021/08/03 08:05:45;;;;;;;2.78;1.77;;;24.30;44.10;;;;;;5008845;28;20203;-55
2021/08/03 08:08:11;;;;;;;1.98;1.77;;;24.40;43.60;;;;;;5010613;28;20290;-57
2021/08/03 08:10:37;;;;;;;1.90;1.60;;;24.30;44.90;;;;;;5007097;28;20303;-59
2021/08/03 08:13:04;;;;;;;1.70;1.60;;;24.30;43.90;;;;;;5008484;28;20310;-60
2021/08/03 08:15:30;;;;;;;2.42;1.85;;;24.30;45.40;;;;;;5009432;28;20687;-58
2021/08/03 08:17:57;;;;;;;2.17;1.88;;;24.40;46.40;;;;;;5008942;28;20286;-59
2021/08/03 08:20:23;;;;;;;3.08;1.90;;;24.30;46.20;;;;;;5008885;28;20249;-59
2021/08/03 08:22:50;;;;;;;2.30;1.58;;;24.30;46.90;;;;;;5004280;28;20660;-54
2021/08/03 08:25:16;;;;;;;1.77;1.67;;;24.40;46.30;;;;;;5010090;28;20227;-57
2021/08/03 08:27:43;;;;;;;3.40;1.75;;;24.40;45.90;;;;;;5010420;28;20237;-58
2021/08/03 08:30:09;;;;;;;1.92;1.50;;;24.40;46.30;;;;;;5011581;28;20224;-57
2021/08/03 08:32:36;;;;;;;1.67;1.58;;;24.40;46.50;;;;;;5014405;28;20724;-58
2021/08/03 08:35:03;;;;;;;2.17;1.98;;;24.40;46.60;;;;;;5014456;28;20203;-58
2021/08/03 08:37:29;;;;;;;3.22;1.70;;;24.40;46.50;;;;;;5013614;28;20242;-58
2021/08/03 08:39:56;;;;;;;4.28;1.83;;;24.40;46.50;;;;;;5014621;28;20209;-60
2021/08/03 08:42:22;;;;;;;3.05;1.70;;;24.40;46.50;;;;;;5014047;28;20310;-56
2021/08/03 08:44:49;;;;;;;4.18;1.60;;;24.40;46.50;;;;;;5014150;28;20322;-56
2021/08/03 08:47:15;;;;;;;2.40;1.60;;;24.40;46.40;;;;;;5013977;28;20199;-56
2021/08/03 08:49:42;;;;;;;3.45;1.58;;;24.40;46.40;;;;;;5014365;28;20786;-58
2021/08/03 08:52:08;;;;;;;1.65;1.33;;;24.40;46.50;;;;;;5012645;28;20572;-58
2021/08/03 08:54:35;;;;;;;4.15;1.60;;;24.40;46.80;;;;;;5012490;28;20306;-57
2021/08/03 08:57:01;;;;;;;2.15;1.65;;;24.40;46.90;;;;;;5013487;28;20283;-57
2021/08/03 08:59:28;;;;;;;2.65;1.45;;;24.40;46.90;;;;;;5013974;28;20202;-56
2021/08/03 09:01:54;;;;;;;2.10;1.50;;;24.40;46.90;;;;;;5013415;28;20249;-56
2021/08/03 09:04:21;;;;;;;2.88;1.70;;;24.40;46.90;;;;;;5012765;28;20723;-56
2021/08/03 09:06:47;;;;;;;3.38;1.85;;;24.40;47.00;;;;;;5007611;28;20217;-56
2021/08/03 09:09:14;;;;;;;2.25;1.80;;;24.50;47.10;;;;;;5013649;28;20301;-52
2021/08/03 09:11:40;;;;;;;2.08;1.77;;;24.50;47.60;;;;;;5005284;28;20203;-56
2021/08/03 09:14:06;;;;;;;3.13;1.80;;;24.50;47.40;;;;;;5008409;28;20317;-60
2021/08/03 09:16:33;;;;;;;3.25;1.70;;;24.60;46.30;;;;;;5011307;28;20743;-57
2021/08/03 09:18:59;;;;;;;4.13;1.80;;;24.60;45.50;;;;;;5008468;28;20212;-55
2021/08/03 09:21:26;;;;;;;4.32;1.65;;;24.60;46.70;;;;;;5009379;28;20199;-64
2021/08/03 09:23:52;;;;;;;2.65;2.13;;;24.60;43.90;;;;;;5009612;28;20257;-57
2021/08/03 09:26:19;;;;;;;6.32;2.00;;;24.60;48.20;;;;;;5006899;28;20241;-56
2021/08/03 09:28:45;;;;;;;2.08;1.88;;;24.60;46.60;;;;;;5007313;28;20221;-50
2021/08/03 09:31:12;;;;;;;4.45;1.67;;;24.60;43.90;;;;;;5011557;28;20271;-49
2021/08/03 09:33:38;;;;;;;1.90;1.70;;;24.50;41.90;;;;;;5010743;28;20219;-60
2021/08/03 09:36:05;;;;;;;2.17;1.98;;;24.50;43.40;;;;;;5011140;28;20694;-53
2021/08/03 09:38:32;;;;;;;1.70;1.60;;;24.60;43.40;;;;;;5012662;28;20364;-54
2021/08/03 09:40:58;;;;;;;4.40;1.77;;;24.50;43.40;;;;;;5007769;28;20276;-56
2021/08/03 09:43:24;;;;;;;2.60;2.10;;;24.50;43.50;;;;;;5008331;28;20684;-58
2021/08/03 09:45:51;;;;;;;2.15;1.73;;;24.50;42.20;;;;;;5010875;28;20235;-58
2021/08/03 09:48:17;;;;;;;3.30;1.70;;;24.60;41.30;;;;;;5009430;28;20206;-53
2021/08/03 09:50:44;;;;;;;2.13;2.03;;;24.50;40.80;;;;;;5007734;28;21878;-51
2021/08/03 09:53:10;;;;;;;1.77;1.65;;;24.50;40.60;;;;;;5003463;28;20231;-54
2021/08/03 09:55:37;;;;;;;2.47;1.73;;;24.50;41.30;;;;;;5009736;28;20195;-58
2021/08/03 09:58:03;;;;;;;2.47;1.98;;;24.50;40.80;;;;;;5012620;28;20590;-55
2021/08/03 10:00:34;;;;;;;4.28;2.30;;;24.60;41.00;;;;;;5011912;28;20285;-52
2021/08/03 10:03:00;;;;;;;2.40;1.77;;;24.50;41.40;;;;;;5011067;28;20223;-57
2021/08/03 10:05:27;;;;;;;2.58;1.88;;;24.60;43.40;;;;;;5010509;28;20213;-53
2021/08/03 10:07:53;;;;;;;4.47;2.10;;;24.60;41.80;;;;;;4998569;28;20592;-53
2021/08/03 10:10:20;;;;;;;2.20;1.75;;;24.50;41.80;;;;;;4997527;28;20230;-51
2021/08/03 10:12:46;;;;;;;3.25;1.70;;;24.50;41.60;;;;;;5008038;28;20231;-53
2021/08/03 10:15:13;;;;;;;1.60;1.50;;;24.50;41.20;;;;;;5010949;28;20285;-58
2021/08/03 10:17:39;;;;;;;2.53;1.80;;;24.50;41.40;;;;;;5010859;28;20200;-55
2021/08/03 10:20:06;;;;;;;3.05;1.85;;;24.50;40.20;;;;;;5012757;28;20294;-58
2021/08/03 10:22:32;;;;;;;1.92;1.70;;;24.50;39.60;;;;;;5010655;28;20223;-53
2021/08/03 10:24:59;;;;;;;2.38;1.75;;;24.40;39.10;;;;;;5009737;28;20262;-58
2021/08/03 10:27:25;;;;;;;1.77;1.67;;;24.50;40.40;;;;;;5011294;28;20203;-58
2021/08/03 10:29:52;;;;;;;1.70;1.60;;;24.50;40.70;;;;;;5009241;28;20294;-58
2021/08/03 10:32:18;;;;;;;2.20;1.80;;;24.50;40.10;;;;;;5010486;28;20596;-54
2021/08/03 10:34:44;;;;;;;2.17;1.90;;;24.50;39.40;;;;;;5018064;28;20281;-57
2021/08/03 10:37:11;;;;;;;3.13;1.50;;;24.50;38.90;;;;;;5015385;28;20214;-57
2021/08/03 10:39:37;;;;;;;1.85;1.70;;;24.50;39.30;;;;;;5010459;28;20213;-56
2021/08/03 10:42:04;;;;;;;2.03;1.52;;;24.50;39.50;;;;;;5010580;28;20298;-52
2021/08/03 10:44:30;;;;;;;4.55;1.92;;;24.60;41.50;;;;;;5010126;28;20254;-54
2021/08/03 10:46:57;;;;;;;2.42;1.80;;;24.60;41.30;;;;;;5009352;28;20729;-52
2021/08/03 10:49:23;;;;;;;1.65;1.52;;;24.50;41.20;;;;;;5010828;28;20231;-50
2021/08/03 10:51:50;;;;;;;1.70;1.60;;;24.50;41.30;;;;;;5008719;28;20251;-55
2021/08/03 10:54:17;;;;;;;3.47;1.83;;;24.50;41.20;;;;;;5009895;28;20309;-55
2021/08/03 10:56:43;;;;;;;2.38;1.67;;;24.50;41.00;;;;;;5020459;22;20231;-65
2021/08/03 10:59:10;;;;;;;1.70;1.48;;;24.50;41.30;;;;;;5010871;28;20646;-63
2021/08/03 11:01:36;;;;;;;1.60;1.50;;;24.50;42.50;;;;;;5006597;28;20227;-68
2021/08/03 11:04:03;;;;;;;2.10;1.55;;;24.50;42.80;;;;;;5009370;28;20262;-66
2021/08/03 11:06:29;;;;;;;3.22;1.70;;;24.50;43.10;;;;;;5010376;28;20199;-66
2021/08/03 11:08:57;;;;;;;1.70;1.60;;;24.50;42.90;;;;;;5010791;28;20203;-66
2021/08/03 11:11:24;;;;;;;1.90;1.70;;;24.50;43.00;;;;;;5011106;28;20266;-65
2021/08/03 11:13:50;;;;;;;2.95;1.77;;;24.50;43.40;;;;;;5010080;28;20289;-65
2021/08/03 11:16:16;;;;;;;1.85;1.75;;;24.50;43.40;;;;;;5009849;28;20206;-66
2021/08/03 11:18:43;;;;;;;1.88;1.70;;;24.50;43.40;;;;;;5011222;28;20213;-65
2021/08/03 11:21:10;;;;;;;2.03;1.60;;;24.50;43.40;;;;;;5011594;28;20385;-65
2021/08/03 11:23:36;;;;;;;1.55;1.45;;;24.50;44.00;;;;;;5011075;28;20202;-66
2021/08/03 11:26:03;;;;;;;2.30;1.67;;;24.50;43.90;;;;;;5009584;28;20286;-65
2021/08/03 11:28:29;;;;;;;2.00;1.40;;;24.50;43.40;;;;;;5010702;28;20681;-65
2021/08/03 11:30:56;;;;;;;1.80;1.60;;;24.50;43.90;;;;;;5005751;28;20219;-66
2021/08/03 11:33:22;;;;;;;2.05;1.60;;;24.50;44.20;;;;;;5011352;28;20282;-65
2021/08/03 11:35:49;;;;;;;2.17;1.45;;;24.50;44.20;;;;;;5011143;28;20203;-65
2021/08/03 11:38:15;;;;;;;4.38;3.13;;;24.50;44.20;;;;;;5005506;28;20210;-65
2021/08/03 11:40:42;;;;;;;6.32;4.05;;;24.50;44.00;;;;;;4991629;28;20294;-65
2021/08/03 11:43:08;;;;;;;5.78;3.58;;;24.60;44.40;;;;;;5003624;28;20202;-66
2021/08/03 11:45:36;;;;;;;7.90;4.00;;;24.50;44.50;;;;;;5009865;28;20231;-64
2021/08/03 11:48:03;;;;;;;8.27;4.55;;;24.60;44.60;;;;;;5009061;28;20325;-65
2021/08/03 11:50:29;;;;;;;8.25;4.47;;;24.60;44.50;;;;;;5010788;28;20623;-66
2021/08/03 11:52:56;;;;;;;8.00;4.60;;;24.60;44.60;;;;;;5010947;28;20587;-65
2021/08/03 11:55:24;;;;;;;7.97;4.55;;;24.60;44.70;;;;;;5010381;28;20249;-65
2021/08/03 11:57:51;;;;;;;12.13;4.55;;;24.60;44.90;;;;;;5010498;28;20626;-65
2021/08/03 12:00:18;;;;;;;9.73;4.57;;;24.60;45.20;;;;;;5011030;28;20230;-65
2021/08/03 12:02:44;;;;;;;11.43;5.13;;;24.60;45.40;;;;;;5010015;28;20246;-65
2021/08/03 12:05:11;;;;;;;9.07;4.40;;;24.60;45.50;;;;;;5008561;28;20786;-65
2021/08/03 12:07:37;;;;;;;7.97;3.45;;;24.60;45.10;;;;;;5008813;28;20294;-65
2021/08/03 12:10:04;;;;;;;9.98;4.30;;;24.60;45.00;;;;;;5010923;28;20284;-65
2021/08/03 12:12:30;;;;;;;6.50;3.97;;;24.60;45.10;;;;;;5009303;28;20310;-65
2021/08/03 12:14:57;;;;;;;6.90;3.70;;;24.60;44.90;;;;;;5007536;28;20284;-66
2021/08/03 12:17:23;;;;;;;7.47;3.97;;;24.60;45.00;;;;;;5006708;28;20245;-65
2021/08/03 12:19:50;;;;;;;7.90;3.55;;;24.60;45.70;;;;;;5009197;28;20683;-65
2021/08/03 12:22:16;;;;;;;6.43;3.40;;;24.60;45.00;;;;;;5008497;28;20598;-66
2021/08/03 12:24:43;;;;;;;5.28;3.08;;;24.60;44.70;;;;;;5010640;28;20324;-64
2021/08/03 12:27:09;;;;;;;4.75;3.25;;;24.60;44.40;;;;;;5009829;28;20203;-65
2021/08/03 12:29:36;;;;;;;4.20;2.10;;;24.60;44.20;;;;;;5007342;28;20221;-64
2021/08/03 12:32:03;;;;;;;3.00;2.70;;;24.60;43.80;;;;;;5009114;28;20653;-65
2021/08/03 12:34:29;;;;;;;4.65;2.40;;;24.60;43.40;;;;;;5008297;28;20242;-64
2021/08/03 12:36:56;;;;;;;3.25;2.20;;;24.60;43.40;;;;;;5007698;28;20286;-65
2021/08/03 12:39:23;;;;;;;3.08;2.17;;;24.60;43.00;;;;;;5008763;28;20294;-66
2021/08/03 12:41:50;;;;;;;3.30;2.30;;;24.60;42.80;;;;;;5009717;28;20223;-66
2021/08/03 12:44:16;;;;;;;3.05;2.20;;;24.60;42.80;;;;;;5010316;28;20247;-65